Time;durP1;ratioP1;P1;durP2;ratioP2;P2;SDS_P1;SDS_P2;PMS_P1;PMS_P2;Temp;Humidity;BMP_temperature;BMP_pressure;BME280_temperature;BME280_humidity;BME280_pressure;Samples;Min_cycle;Max_cycle;Signal;HPM_P1;HPM_P2
2022/07/15 00:01:56;;;;;;;4.23;2.07;;;;;;;;;;4990176;28;20219;-75
2022/07/15 00:04:23;;;;;;;2.63;1.80;;;;;;;;;;5012904;28;20186;-75
2022/07/15 00:06:49;;;;;;;3.17;1.70;;;;;;;;;;4997670;28;20206;-75
2022/07/15 00:09:15;;;;;;;4.20;1.90;;;;;;;;;;5009608;28;20860;-75
2022/07/15 00:11:41;;;;;;;3.63;2.00;;;;;;;;;;5010580;28;20709;-75
2022/07/15 00:14:07;;;;;;;1.80;1.70;;;;;;;;;;5010929;28;20183;-75
2022/07/15 00:16:34;;;;;;;4.03;2.00;;;;;;;;;;5009537;28;20198;-75
2022/07/15 00:19:00;;;;;;;3.63;2.03;;;;;;;;;;5007279;28;20213;-75
2022/07/15 00:21:26;;;;;;;5.63;2.33;;;;;;;;;;4976513;28;20203;-75
2022/07/15 00:23:52;;;;;;;3.60;2.27;;;;;;;;;;5006384;28;20187;-75
2022/07/15 00:26:18;;;;;;;3.13;2.50;;;;;;;;;;5010387;28;20216;-75
2022/07/15 00:28:44;;;;;;;3.37;2.27;;;;;;;;;;5010018;28;20233;-75
2022/07/15 00:31:10;;;;;;;4.07;2.20;;;;;;;;;;5009702;28;20211;-75
2022/07/15 00:33:37;;;;;;;4.10;2.13;;;;;;;;;;5010523;28;20685;-75
2022/07/15 00:36:03;;;;;;;4.63;2.20;;;;;;;;;;4996302;28;20179;-74
2022/07/15 00:38:29;;;;;;;3.53;2.13;;;;;;;;;;4996247;28;20184;-75
2022/07/15 00:40:55;;;;;;;3.40;2.03;;;;;;;;;;4995989;28;20213;-74
2022/07/15 00:43:21;;;;;;;3.33;2.07;;;;;;;;;;5013875;28;20183;-74
2022/07/15 00:45:48;;;;;;;2.93;2.00;;;;;;;;;;5008979;28;20195;-75
2022/07/15 00:48:14;;;;;;;3.57;1.90;;;;;;;;;;5012169;28;20195;-75
2022/07/15 00:50:40;;;;;;;3.03;2.00;;;;;;;;;;5012954;28;20269;-75
2022/07/15 00:53:07;;;;;;;3.27;2.03;;;;;;;;;;5010992;28;20649;-75
2022/07/15 00:55:38;;;;;;;3.73;2.23;;;;;;;;;;5004522;28;20258;-75
2022/07/15 00:58:05;;;;;;;3.23;2.30;;;;;;;;;;5014887;28;20183;-75
2022/07/15 01:00:32;;;;;;;6.43;2.60;;;;;;;;;;4996228;28;20194;-75
2022/07/15 01:02:59;;;;;;;5.30;2.73;;;;;;;;;;4997337;28;20183;-74
2022/07/15 01:05:26;;;;;;;4.93;2.13;;;;;;;;;;5021686;28;20191;-75
2022/07/15 01:07:52;;;;;;;5.13;2.53;;;;;;;;;;4996637;28;20249;-75
2022/07/15 01:10:20;;;;;;;3.27;2.50;;;;;;;;;;5010729;28;20226;-75
2022/07/15 01:12:48;;;;;;;2.93;2.20;;;;;;;;;;4980194;28;20179;-74
2022/07/15 01:15:15;;;;;;;3.00;2.20;;;;;;;;;;5007471;28;20262;-74
2022/07/15 01:17:44;;;;;;;2.87;2.40;;;;;;;;;;5011955;28;20186;-75
2022/07/15 01:20:10;;;;;;;3.17;2.20;;;;;;;;;;4995000;28;22099;-75
2022/07/15 01:22:47;;;;;;;3.57;2.13;;;;;;;;;;5011922;28;20532;-75
2022/07/15 01:25:14;;;;;;;4.57;2.30;;;;;;;;;;4994053;28;20745;-74
2022/07/15 01:27:41;;;;;;;2.97;2.00;;;;;;;;;;4995910;28;20194;-74
2022/07/15 01:30:08;;;;;;;3.23;2.30;;;;;;;;;;5011099;28;20652;-75
2022/07/15 01:32:34;;;;;;;3.23;2.30;;;;;;;;;;5010513;28;20179;-75
2022/07/15 01:35:00;;;;;;;2.90;2.00;;;;;;;;;;5013537;28;20238;-75
2022/07/15 01:37:27;;;;;;;2.97;2.20;;;;;;;;;;4998554;28;20187;-74
2022/07/15 01:39:56;;;;;;;3.33;2.30;;;;;;;;;;4998170;28;21574;-74
2022/07/15 01:42:23;;;;;;;3.23;2.10;;;;;;;;;;5011723;28;20210;-75
2022/07/15 01:44:49;;;;;;;2.87;2.07;;;;;;;;;;5014759;28;20186;-75
2022/07/15 01:47:16;;;;;;;3.73;2.50;;;;;;;;;;4991032;28;20191;-74
2022/07/15 01:49:42;;;;;;;3.93;2.27;;;;;;;;;;5010857;28;20180;-73
2022/07/15 01:52:28;;;;;;;4.03;2.70;;;;;;;;;;4998642;28;20662;-75
2022/07/15 01:54:55;;;;;;;5.03;2.20;;;;;;;;;;5005658;28;20855;-74
2022/07/15 01:57:21;;;;;;;3.93;2.23;;;;;;;;;;4993300;28;20198;-74
2022/07/15 01:59:51;;;;;;;3.53;2.13;;;;;;;;;;5005566;28;20673;-75
2022/07/15 02:02:27;;;;;;;3.40;2.07;;;;;;;;;;5010480;28;20171;-75
2022/07/15 02:04:53;;;;;;;5.67;2.07;;;;;;;;;;4995013;28;20179;-75
2022/07/15 02:07:19;;;;;;;2.63;1.93;;;;;;;;;;5010828;28;20179;-74
2022/07/15 02:09:45;;;;;;;3.47;2.00;;;;;;;;;;5010517;28;20187;-74
2022/07/15 02:12:12;;;;;;;3.17;2.00;;;;;;;;;;4978906;28;20305;-74
2022/07/15 02:14:42;;;;;;;3.87;1.80;;;;;;;;;;5002926;28;20194;-74
2022/07/15 02:17:08;;;;;;;2.60;2.00;;;;;;;;;;5010638;28;20663;-74
2022/07/15 02:19:38;;;;;;;4.13;2.10;;;;;;;;;;5007830;28;20204;-75
2022/07/15 02:22:05;;;;;;;4.30;2.10;;;;;;;;;;5011266;28;20205;-74
2022/07/15 02:24:31;;;;;;;3.33;2.10;;;;;;;;;;5011736;28;21531;-75
2022/07/15 02:26:58;;;;;;;2.50;2.03;;;;;;;;;;4990117;28;20191;-74
2022/07/15 02:29:26;;;;;;;2.40;1.70;;;;;;;;;;5010107;28;20179;-75
2022/07/15 02:31:53;;;;;;;7.80;2.00;;;;;;;;;;5002173;28;20298;-75
2022/07/15 02:34:20;;;;;;;2.83;1.93;;;;;;;;;;5010973;28;20186;-75
2022/07/15 02:36:47;;;;;;;2.30;1.90;;;;;;;;;;4977312;28;20639;-75
2022/07/15 02:39:13;;;;;;;2.77;1.83;;;;;;;;;;5011879;28;20182;-74
2022/07/15 02:41:41;;;;;;;4.47;1.87;;;;;;;;;;5003793;28;20250;-74
2022/07/15 02:44:10;;;;;;;4.00;1.80;;;;;;;;;;4992303;28;20191;-74
2022/07/15 02:46:39;;;;;;;3.37;2.10;;;;;;;;;;5008543;28;20183;-75
2022/07/15 02:49:06;;;;;;;2.53;1.90;;;;;;;;;;4992313;28;20183;-75
2022/07/15 02:51:33;;;;;;;3.20;1.90;;;;;;;;;;5009847;28;20235;-75
2022/07/15 02:54:00;;;;;;;3.33;1.83;;;;;;;;;;5008684;28;20187;-75
2022/07/15 02:56:29;;;;;;;3.00;1.80;;;;;;;;;;5010053;28;20612;-75
2022/07/15 02:58:55;;;;;;;2.33;1.80;;;;;;;;;;5010142;28;20518;-75
2022/07/15 03:01:21;;;;;;;2.50;2.03;;;;;;;;;;4994006;28;20219;-74
2022/07/15 03:03:50;;;;;;;4.63;2.20;;;;;;;;;;5008705;28;20198;-75
2022/07/15 03:06:20;;;;;;;2.00;1.70;;;;;;;;;;4993778;28;20191;-75
2022/07/15 03:08:47;;;;;;;3.20;1.70;;;;;;;;;;4976591;28;20186;-75
2022/07/15 03:11:13;;;;;;;2.30;1.80;;;;;;;;;;4995331;28;20230;-74
2022/07/15 03:13:40;;;;;;;2.00;1.80;;;;;;;;;;4995778;28;20179;-75
2022/07/15 03:16:06;;;;;;;2.70;2.20;;;;;;;;;;4995493;28;20183;-75
2022/07/15 03:18:32;;;;;;;3.43;2.33;;;;;;;;;;4990677;28;20175;-75
2022/07/15 03:20:58;;;;;;;2.87;2.40;;;;;;;;;;4977195;28;20725;-74
2022/07/15 03:23:25;;;;;;;3.13;2.30;;;;;;;;;;5009926;28;20608;-74
2022/07/15 03:25:52;;;;;;;3.40;2.10;;;;;;;;;;4971622;28;20194;-74
2022/07/15 03:28:20;;;;;;;3.83;2.40;;;;;;;;;;4992716;28;20190;-75
2022/07/15 03:30:47;;;;;;;3.30;2.20;;;;;;;;;;5002578;28;20215;-74
2022/07/15 03:33:15;;;;;;;2.93;2.27;;;;;;;;;;5006358;28;20587;-74
2022/07/15 03:35:42;;;;;;;2.83;1.90;;;;;;;;;;5009348;28;20262;-75
2022/07/15 03:38:09;;;;;;;4.13;1.90;;;;;;;;;;5006536;28;20183;-75
2022/07/15 03:40:36;;;;;;;2.67;1.77;;;;;;;;;;4984083;28;20217;-75
2022/07/15 03:43:03;;;;;;;4.50;2.07;;;;;;;;;;4979285;28;20198;-75
2022/07/15 03:45:32;;;;;;;2.57;1.83;;;;;;;;;;4995311;28;20187;-75
2022/07/15 03:47:58;;;;;;;4.10;2.30;;;;;;;;;;5008867;28;20546;-75
2022/07/15 03:50:24;;;;;;;3.80;2.00;;;;;;;;;;5008756;28;20602;-74
2022/07/15 03:52:50;;;;;;;2.67;1.90;;;;;;;;;;5004692;28;20603;-74
2022/07/15 03:55:16;;;;;;;3.27;2.00;;;;;;;;;;5007362;28;20183;-74
2022/07/15 03:57:43;;;;;;;2.20;1.90;;;;;;;;;;5009827;28;20175;-75
2022/07/15 04:00:10;;;;;;;2.80;1.80;;;;;;;;;;4965514;28;20191;-75
2022/07/15 04:02:42;;;;;;;2.97;2.17;;;;;;;;;;5009849;28;20499;-74
2022/07/15 04:05:09;;;;;;;3.10;2.03;;;;;;;;;;5009060;28;20210;-75
2022/07/15 04:07:35;;;;;;;3.33;2.20;;;;;;;;;;5010097;28;20195;-74
2022/07/15 04:10:01;;;;;;;3.93;2.77;;;;;;;;;;5012446;28;20249;-75
2022/07/15 04:12:27;;;;;;;3.50;2.67;;;;;;;;;;4983630;28;20187;-75
2022/07/15 04:14:54;;;;;;;3.33;2.70;;;;;;;;;;5014352;28;20171;-75
2022/07/15 04:17:21;;;;;;;6.07;2.63;;;;;;;;;;5014226;28;20692;-75
2022/07/15 04:19:48;;;;;;;4.67;3.07;;;;;;;;;;5011101;28;20187;-75
2022/07/15 04:22:14;;;;;;;4.70;3.00;;;;;;;;;;4999128;28;20199;-75
2022/07/15 04:24:45;;;;;;;2.77;2.53;;;;;;;;;;5014467;28;20262;-75
2022/07/15 04:27:14;;;;;;;3.77;2.60;;;;;;;;;;4996422;28;20192;-75
2022/07/15 04:29:40;;;;;;;3.03;2.43;;;;;;;;;;4983016;28;20241;-75
2022/07/15 04:32:08;;;;;;;2.53;2.33;;;;;;;;;;4996006;28;20325;-75
2022/07/15 04:34:38;;;;;;;3.90;2.50;;;;;;;;;;4980202;28;20774;-75
2022/07/15 04:37:05;;;;;;;5.17;3.00;;;;;;;;;;5009804;28;20610;-75
2022/07/15 04:39:31;;;;;;;4.03;2.97;;;;;;;;;;5006421;28;20211;-75
2022/07/15 04:41:58;;;;;;;3.87;2.53;;;;;;;;;;4998373;28;20277;-75
2022/07/15 04:44:25;;;;;;;3.63;2.37;;;;;;;;;;4984765;28;21006;-75
2022/07/15 04:46:51;;;;;;;4.47;2.13;;;;;;;;;;4979818;28;20588;-75
2022/07/15 04:52:33;;;;;;;2.50;2.03;;;;;;;;;;4995456;28;20647;-75
2022/07/15 04:55:00;;;;;;;3.17;2.20;;;;;;;;;;4995005;28;20187;-76
2022/07/15 04:57:26;;;;;;;4.53;2.10;;;;;;;;;;5012613;28;20519;-76
2022/07/15 04:59:52;;;;;;;3.30;2.30;;;;;;;;;;5010401;28;20183;-80
2022/07/15 05:02:18;;;;;;;3.83;2.20;;;;;;;;;;4966039;28;20207;-78
2022/07/15 05:04:47;;;;;;;4.10;2.30;;;;;;;;;;5009825;28;20262;-76
2022/07/15 05:07:15;;;;;;;2.63;2.03;;;;;;;;;;4989591;28;20183;-74
2022/07/15 05:09:43;;;;;;;2.73;2.10;;;;;;;;;;4995313;28;20190;-75
2022/07/15 05:12:09;;;;;;;2.30;1.90;;;;;;;;;;4976589;28;20723;-75
2022/07/15 05:14:45;;;;;;;4.50;2.23;;;;;;;;;;5011335;28;20175;-76
2022/07/15 05:17:11;;;;;;;3.33;2.10;;;;;;;;;;5011974;28;20188;-76
2022/07/15 05:19:38;;;;;;;3.00;2.00;;;;;;;;;;4996704;28;20187;-77
2022/07/15 05:22:06;;;;;;;3.03;2.00;;;;;;;;;;4993785;28;20252;-76
2022/07/15 05:24:32;;;;;;;3.43;1.97;;;;;;;;;;4999894;28;20183;-77
2022/07/15 05:27:04;;;;;;;4.03;2.10;;;;;;;;;;4986248;28;20632;-78
2022/07/15 05:29:33;;;;;;;6.47;2.17;;;;;;;;;;4985070;28;20195;-78
2022/07/15 05:32:00;;;;;;;2.80;1.90;;;;;;;;;;4982988;28;20707;-74
2022/07/15 05:34:27;;;;;;;3.93;2.20;;;;;;;;;;4995921;28;20215;-76
2022/07/15 05:36:53;;;;;;;2.90;1.93;;;;;;;;;;5010815;28;20203;-76
2022/07/15 05:39:22;;;;;;;2.60;2.00;;;;;;;;;;5008708;28;20194;-76
2022/07/15 05:41:48;;;;;;;3.40;1.80;;;;;;;;;;4960707;28;20203;-77
2022/07/15 05:44:15;;;;;;;2.30;1.70;;;;;;;;;;5009094;28;20180;-76
2022/07/15 05:46:46;;;;;;;2.80;2.10;;;;;;;;;;5010455;28;20581;-76
2022/07/15 05:49:12;;;;;;;2.57;2.00;;;;;;;;;;5007376;28;20217;-73
2022/07/15 05:51:39;;;;;;;2.60;1.90;;;;;;;;;;5006495;28;20228;-74
2022/07/15 05:54:06;;;;;;;2.30;1.80;;;;;;;;;;5005588;28;20183;-73
2022/07/15 05:56:32;;;;;;;3.33;1.90;;;;;;;;;;4989278;28;20186;-75
2022/07/15 05:58:59;;;;;;;3.43;2.60;;;;;;;;;;5005134;28;20598;-75
2022/07/15 06:01:31;;;;;;;2.87;2.30;;;;;;;;;;5005755;28;20245;-79
2022/07/15 06:03:57;;;;;;;3.53;2.60;;;;;;;;;;5009788;28;20215;-76
2022/07/15 06:06:23;;;;;;;3.40;2.33;;;;;;;;;;5003921;28;20278;-74
2022/07/15 06:08:50;;;;;;;3.83;1.90;;;;;;;;;;5006945;28;20620;-75
2022/07/15 06:11:16;;;;;;;2.77;1.97;;;;;;;;;;5009049;28;20273;-77
2022/07/15 06:13:43;;;;;;;2.43;1.90;;;;;;;;;;5010142;28;20602;-77
2022/07/15 06:16:09;;;;;;;3.77;2.03;;;;;;;;;;5007223;28;20278;-77
2022/07/15 06:18:37;;;;;;;3.63;2.03;;;;;;;;;;5007562;28;20222;-77
2022/07/15 06:21:03;;;;;;;3.67;1.97;;;;;;;;;;4974434;28;20207;-77
2022/07/15 06:23:29;;;;;;;3.47;1.73;;;;;;;;;;5007265;28;20269;-77
2022/07/15 06:25:56;;;;;;;2.20;1.93;;;;;;;;;;4990331;28;20187;-77
2022/07/15 06:28:22;;;;;;;3.17;2.00;;;;;;;;;;5008847;28;20187;-77
2022/07/15 06:30:50;;;;;;;3.30;2.00;;;;;;;;;;4990481;28;20306;-77
2022/07/15 06:33:16;;;;;;;4.27;2.27;;;;;;;;;;5008636;28;20183;-76
2022/07/15 06:35:42;;;;;;;3.50;2.00;;;;;;;;;;4991930;28;20175;-76
2022/07/15 06:38:08;;;;;;;5.03;2.30;;;;;;;;;;5007702;28;20191;-76
2022/07/15 06:40:35;;;;;;;3.17;2.37;;;;;;;;;;4987580;28;20214;-77
2022/07/15 06:43:02;;;;;;;3.17;2.20;;;;;;;;;;5009880;28;20187;-77
2022/07/15 06:45:48;;;;;;;4.90;2.30;;;;;;;;;;5010195;28;20270;-77
2022/07/15 06:48:14;;;;;;;4.07;2.20;;;;;;;;;;4991896;28;20214;-77
2022/07/15 06:50:41;;;;;;;4.77;2.20;;;;;;;;;;5007850;28;20262;-77
2022/07/15 06:53:07;;;;;;;2.67;2.17;;;;;;;;;;5008509;28;20225;-77
2022/07/15 06:55:33;;;;;;;3.27;2.20;;;;;;;;;;5009106;28;20183;-77
2022/07/15 06:57:59;;;;;;;4.17;2.40;;;;;;;;;;4989294;28;20191;-76
2022/07/15 07:00:26;;;;;;;4.67;2.37;;;;;;;;;;5006170;28;20294;-76
2022/07/15 07:02:52;;;;;;;6.57;2.70;;;;;;;;;;4989751;28;20191;-76
2022/07/15 07:05:18;;;;;;;4.87;2.40;;;;;;;;;;5007558;28;20199;-76
2022/07/15 07:07:45;;;;;;;6.67;2.40;;;;;;;;;;4976351;28;20187;-77
2022/07/15 07:10:11;;;;;;;2.97;2.20;;;;;;;;;;5002936;28;20307;-77
2022/07/15 07:12:38;;;;;;;3.60;2.00;;;;;;;;;;4984486;28;20279;-76
2022/07/15 07:15:06;;;;;;;4.93;2.10;;;;;;;;;;5010145;28;20183;-76
2022/07/15 07:17:32;;;;;;;4.57;2.00;;;;;;;;;;5009177;28;20256;-77
2022/07/15 07:19:58;;;;;;;3.13;1.90;;;;;;;;;;5010640;28;20237;-77
2022/07/15 07:22:24;;;;;;;2.63;1.90;;;;;;;;;;4987525;28;20237;-76
2022/07/15 07:24:51;;;;;;;4.57;1.80;;;;;;;;;;4988053;28;20821;-76
2022/07/15 07:27:18;;;;;;;2.03;1.50;;;;;;;;;;5008160;28;20191;-77
2022/07/15 07:29:44;;;;;;;2.47;1.70;;;;;;;;;;5008257;28;20317;-77
2022/07/15 07:32:10;;;;;;;3.20;1.70;;;;;;;;;;5008386;28;20214;-77
2022/07/15 07:34:36;;;;;;;1.93;1.50;;;;;;;;;;4991127;28;20190;-76
2022/07/15 07:37:02;;;;;;;2.80;1.70;;;;;;;;;;5010292;28;20187;-77
2022/07/15 07:39:28;;;;;;;3.73;1.70;;;;;;;;;;5010956;28;20229;-77
2022/07/15 07:41:54;;;;;;;4.67;1.70;;;;;;;;;;4984797;28;20211;-77
2022/07/15 07:44:21;;;;;;;5.87;1.70;;;;;;;;;;4990221;28;20218;-77
2022/07/15 07:46:48;;;;;;;2.73;1.70;;;;;;;;;;5008953;28;20183;-77
2022/07/15 07:49:14;;;;;;;1.70;1.50;;;;;;;;;;4994564;28;20195;-77
2022/07/15 07:51:40;;;;;;;2.53;1.77;;;;;;;;;;4960464;28;20253;-77
2022/07/15 07:54:07;;;;;;;1.90;1.50;;;;;;;;;;4991921;28;20646;-77
2022/07/15 07:56:33;;;;;;;3.23;1.70;;;;;;;;;;5008900;28;20195;-77
2022/07/15 07:58:59;;;;;;;9.03;1.60;;;;;;;;;;5013674;28;20194;-77
2022/07/15 08:01:26;;;;;;;4.53;1.80;;;;;;;;;;5010644;28;20206;-77
2022/07/15 08:03:52;;;;;;;4.17;2.43;;;;;;;;;;4992891;28;20674;-77
2022/07/15 08:06:18;;;;;;;3.17;1.67;;;;;;;;;;4977368;28;20202;-77
2022/07/15 08:08:45;;;;;;;3.53;1.40;;;;;;;;;;5010706;28;20225;-77
2022/07/15 08:11:12;;;;;;;2.87;1.60;;;;;;;;;;5011026;28;20215;-77
2022/07/15 08:13:39;;;;;;;3.00;1.60;;;;;;;;;;5011718;28;20179;-77
2022/07/15 08:16:06;;;;;;;3.00;1.60;;;;;;;;;;4977675;28;20594;-77
2022/07/15 08:18:32;;;;;;;2.37;1.70;;;;;;;;;;5011252;28;20203;-77
2022/07/15 08:20:58;;;;;;;4.43;1.93;;;;;;;;;;5010977;28;20210;-77
2022/07/15 08:23:25;;;;;;;3.93;1.50;;;;;;;;;;5012207;28;20206;-77
2022/07/15 08:25:51;;;;;;;2.70;1.50;;;;;;;;;;5012263;28;20194;-77
2022/07/15 08:28:18;;;;;;;2.63;1.50;;;;;;;;;;5012569;28;20179;-77
2022/07/15 08:30:45;;;;;;;3.57;1.50;;;;;;;;;;5009717;28;20210;-77
2022/07/15 08:33:11;;;;;;;3.50;1.60;;;;;;;;;;5008960;28;20186;-77
2022/07/15 08:35:37;;;;;;;5.83;1.60;;;;;;;;;;5002439;28;20647;-77
2022/07/15 08:38:07;;;;;;;3.93;1.60;;;;;;;;;;5009340;28;20194;-77
2022/07/15 08:40:37;;;;;;;3.80;2.40;;;;;;;;;;5010160;28;20195;-77
2022/07/15 08:43:06;;;;;;;3.13;1.70;;;;;;;;;;4993334;28;20203;-77
2022/07/15 08:45:34;;;;;;;4.43;1.70;;;;;;;;;;5010994;28;20230;-77
2022/07/15 08:48:02;;;;;;;2.40;1.77;;;;;;;;;;5000200;28;20699;-77
2022/07/15 08:50:28;;;;;;;3.73;1.53;;;;;;;;;;5010186;28;20211;-77
2022/07/15 08:52:55;;;;;;;3.90;1.70;;;;;;;;;;5009602;28;20249;-77
2022/07/15 08:55:21;;;;;;;2.23;1.50;;;;;;;;;;5011563;28;20261;-77
2022/07/15 08:57:47;;;;;;;4.07;1.67;;;;;;;;;;5008787;28;20190;-77
2022/07/15 09:00:15;;;;;;;3.07;1.60;;;;;;;;;;5010220;28;20187;-77
2022/07/15 09:02:41;;;;;;;4.13;1.60;;;;;;;;;;5011135;28;20179;-77
2022/07/15 09:05:24;;;;;;;4.10;1.83;;;;;;;;;;5011580;28;20639;-77
2022/07/15 09:07:53;;;;;;;2.20;1.47;;;;;;;;;;5011043;28;20650;-77
2022/07/15 09:10:20;;;;;;;4.63;1.63;;;;;;;;;;5009367;28;20269;-77
2022/07/15 09:12:49;;;;;;;3.73;1.60;;;;;;;;;;5011224;28;20182;-76
2022/07/15 09:15:30;;;;;;;14.20;1.90;;;;;;;;;;5010553;28;20231;-76
2022/07/15 09:18:06;;;;;;;5.53;2.00;;;;;;;;;;5009469;28;20218;-76
2022/07/15 09:20:32;;;;;;;3.30;1.60;;;;;;;;;;5004446;28;20869;-77
2022/07/15 09:22:59;;;;;;;3.87;1.60;;;;;;;;;;5008056;28;20191;-76
2022/07/15 09:25:27;;;;;;;3.00;1.47;;;;;;;;;;4988467;28;20599;-76
2022/07/15 09:27:54;;;;;;;4.67;1.80;;;;;;;;;;5001438;28;20183;-76
2022/07/15 09:36:05;;;;;;;2.30;1.30;;;;;;;;;;5010656;28;20267;-77
2022/07/15 09:38:34;;;;;;;1.30;1.20;;;;;;;;;;5009798;28;20553;-76
2022/07/15 09:41:01;;;;;;;2.80;1.50;;;;;;;;;;5010356;28;20234;-76
2022/07/15 09:43:28;;;;;;;2.70;1.40;;;;;;;;;;5010584;28;20187;-77
2022/07/15 09:46:01;;;;;;;3.50;1.77;;;;;;;;;;5007418;28;20187;-76
2022/07/15 09:48:28;;;;;;;3.57;1.73;;;;;;;;;;5012523;28;20240;-77
2022/07/15 09:51:01;;;;;;;4.67;1.80;;;;;;;;;;4994921;28;20218;-76
2022/07/15 09:53:27;;;;;;;3.40;2.00;;;;;;;;;;5009607;28;20214;-76
2022/07/15 09:55:55;;;;;;;2.40;1.40;;;;;;;;;;5010889;28;20187;-76
2022/07/15 09:58:21;;;;;;;3.60;1.60;;;;;;;;;;4989634;28;20941;-77
2022/07/15 10:00:47;;;;;;;4.90;1.80;;;;;;;;;;4991507;28;20250;-77
2022/07/15 10:03:14;;;;;;;3.10;1.80;;;;;;;;;;5010814;28;20199;-77
2022/07/15 10:05:40;;;;;;;2.13;1.63;;;;;;;;;;5008037;28;20197;-77
2022/07/15 10:08:09;;;;;;;4.43;1.47;;;;;;;;;;4985902;28;20180;-77
2022/07/15 10:10:39;;;;;;;3.87;2.03;;;;;;;;;;5008284;28;20222;-77
2022/07/15 10:13:17;;;;;;;3.13;1.60;;;;;;;;;;5007566;28;20183;-76
2022/07/15 10:15:56;;;;;;;3.23;1.70;;;;;;;;;;5006550;28;20289;-76
2022/07/15 10:18:33;;;;;;;4.03;1.90;;;;;;;;;;5007211;28;20274;-76
2022/07/15 10:21:05;;;;;;;2.40;1.60;;;;;;;;;;5005600;28;20246;-80
2022/07/15 10:23:35;;;;;;;3.43;1.60;;;;;;;;;;4996048;28;20257;-79
2022/07/15 10:26:20;;;;;;;4.03;1.77;;;;;;;;;;5010071;28;20826;-80
2022/07/15 10:29:03;;;;;;;3.03;1.67;;;;;;;;;;5010214;28;20231;-78
2022/07/15 10:31:31;;;;;;;2.83;1.80;;;;;;;;;;5009217;28;20222;-73
2022/07/15 10:34:00;;;;;;;4.90;1.80;;;;;;;;;;5001714;28;20195;-78
2022/07/15 10:36:27;;;;;;;3.13;2.00;;;;;;;;;;4990659;28;20187;-76
2022/07/15 10:39:06;;;;;;;7.13;2.60;;;;;;;;;;5008208;28;20183;-78
2022/07/15 10:41:51;;;;;;;3.37;1.93;;;;;;;;;;5007333;28;20674;-77
2022/07/15 10:44:17;;;;;;;3.03;1.80;;;;;;;;;;5008885;28;20278;-74
2022/07/15 10:46:43;;;;;;;4.13;1.70;;;;;;;;;;5003386;28;20210;-76
2022/07/15 10:49:09;;;;;;;2.83;1.50;;;;;;;;;;5008134;28;20187;-77
2022/07/15 10:51:35;;;;;;;2.97;1.60;;;;;;;;;;5009731;28;20211;-77
2022/07/15 10:54:03;;;;;;;3.10;1.90;;;;;;;;;;5010275;28;20530;-77
2022/07/15 10:56:34;;;;;;;4.03;1.60;;;;;;;;;;5008002;28;20873;-78
2022/07/15 10:59:23;;;;;;;4.07;1.93;;;;;;;;;;5008952;28;20508;-77
2022/07/15 11:01:49;;;;;;;2.17;1.90;;;;;;;;;;4996802;28;20637;-77
2022/07/15 11:04:15;;;;;;;2.33;1.80;;;;;;;;;;5010481;28;20179;-77
2022/07/15 11:07:00;;;;;;;5.10;1.90;;;;;;;;;;5011449;28;20192;-77
2022/07/15 11:09:45;;;;;;;4.90;2.40;;;;;;;;;;5007621;28;20199;-77
2022/07/15 11:12:11;;;;;;;3.23;1.97;;;;;;;;;;4989732;28;20209;-78
2022/07/15 11:14:43;;;;;;;4.33;1.73;;;;;;;;;;5010556;28;20689;-77
2022/07/15 11:17:11;;;;;;;6.17;2.10;;;;;;;;;;5009748;28;20195;-78
2022/07/15 11:19:37;;;;;;;3.30;1.90;;;;;;;;;;5007060;28;20282;-77
2022/07/15 11:22:03;;;;;;;4.23;2.13;;;;;;;;;;5007120;28;20210;-77
2022/07/15 11:24:31;;;;;;;2.60;1.80;;;;;;;;;;5006921;28;20611;-77
2022/07/15 11:27:00;;;;;;;3.17;1.57;;;;;;;;;;5003756;28;20198;-78
2022/07/15 11:29:40;;;;;;;4.70;2.00;;;;;;;;;;5011449;28;20267;-80
2022/07/15 11:32:07;;;;;;;3.80;1.90;;;;;;;;;;5009839;28;20211;-78
2022/07/15 11:34:39;;;;;;;3.03;1.80;;;;;;;;;;5014525;28;20217;-82
2022/07/15 11:37:06;;;;;;;3.40;2.07;;;;;;;;;;4969277;28;20590;-78
2022/07/15 11:39:32;;;;;;;4.90;2.23;;;;;;;;;;5010561;28;20182;-74
2022/07/15 11:44:48;;;;;;;4.73;2.23;;;;;;;;;;5007343;28;20187;-75
2022/07/15 11:47:14;;;;;;;4.80;2.20;;;;;;;;;;4993068;28;20183;-75
2022/07/15 11:49:41;;;;;;;3.47;2.20;;;;;;;;;;5003693;28;20552;-76
2022/07/15 11:52:09;;;;;;;4.23;2.10;;;;;;;;;;4999567;28;20273;-75
2022/07/15 11:54:39;;;;;;;4.10;2.30;;;;;;;;;;4991042;28;20646;-75
2022/07/15 11:57:16;;;;;;;4.17;2.17;;;;;;;;;;5004490;28;20186;-75
2022/07/15 11:59:57;;;;;;;8.37;2.10;;;;;;;;;;4999823;28;20186;-72
2022/07/15 12:02:34;;;;;;;2.40;1.97;;;;;;;;;;5001861;28;20218;-76
2022/07/15 12:05:11;;;;;;;4.87;2.20;;;;;;;;;;4972398;28;20195;-76
2022/07/15 12:07:49;;;;;;;6.77;2.80;;;;;;;;;;5003478;28;20539;-75
2022/07/15 12:10:37;;;;;;;4.17;2.33;;;;;;;;;;4997376;28;20291;-75
2022/07/15 12:13:09;;;;;;;3.93;2.27;;;;;;;;;;5003032;28;20709;-75
2022/07/15 12:15:40;;;;;;;3.40;2.10;;;;;;;;;;5000120;28;20188;-75
2022/07/15 12:18:17;;;;;;;4.03;2.20;;;;;;;;;;4968337;28;20226;-76
2022/07/15 12:20:55;;;;;;;2.83;2.07;;;;;;;;;;5003450;28;20794;-75
2022/07/15 12:23:32;;;;;;;3.37;2.10;;;;;;;;;;4969634;28;20253;-75
2022/07/15 12:26:10;;;;;;;2.83;2.33;;;;;;;;;;5001142;28;20194;-75
2022/07/15 12:28:55;;;;;;;4.50;2.10;;;;;;;;;;4994261;28;20677;-76
2022/07/15 12:31:34;;;;;;;7.13;2.20;;;;;;;;;;5005224;28;21646;-75
2022/07/15 12:34:11;;;;;;;2.63;1.97;;;;;;;;;;5004865;28;20191;-76
2022/07/15 12:36:57;;;;;;;5.07;2.33;;;;;;;;;;5004019;28;20187;-74
2022/07/15 12:39:35;;;;;;;4.27;2.30;;;;;;;;;;5007438;28;20251;-76
2022/07/15 12:42:13;;;;;;;4.87;2.20;;;;;;;;;;5006764;28;20212;-75
2022/07/15 12:45:04;;;;;;;2.40;1.67;;;;;;;;;;4999332;28;20257;-76
2022/07/15 12:47:34;;;;;;;2.93;2.00;;;;;;;;;;5007498;28;20188;-76
2022/07/15 12:50:11;;;;;;;4.37;2.40;;;;;;;;;;5002201;28;20272;-76
2022/07/15 12:52:45;;;;;;;2.10;1.90;;;;;;;;;;4989108;28;20205;-76
2022/07/15 12:55:16;;;;;;;3.13;2.10;;;;;;;;;;5006883;28;20658;-76
2022/07/15 12:57:43;;;;;;;3.20;2.20;;;;;;;;;;5008300;28;20222;-76
2022/07/15 13:00:17;;;;;;;4.03;2.23;;;;;;;;;;5008987;28;20184;-77
2022/07/15 13:02:55;;;;;;;2.80;1.93;;;;;;;;;;5011006;28;20367;-77
2022/07/15 13:05:22;;;;;;;4.73;2.47;;;;;;;;;;4994360;28;20176;-77
2022/07/15 13:07:48;;;;;;;4.87;2.30;;;;;;;;;;5014368;28;20198;-77
2022/07/15 13:10:14;;;;;;;3.90;2.33;;;;;;;;;;5001612;28;20180;-77
2022/07/15 13:12:41;;;;;;;3.67;2.30;;;;;;;;;;4993766;28;20185;-77
2022/07/15 13:15:07;;;;;;;3.17;2.10;;;;;;;;;;5012883;28;20188;-77
2022/07/15 13:17:35;;;;;;;3.30;2.10;;;;;;;;;;5014332;28;20668;-77
2022/07/15 13:20:02;;;;;;;3.20;2.30;;;;;;;;;;5011632;28;20190;-77
2022/07/15 13:22:30;;;;;;;3.03;2.37;;;;;;;;;;5010215;28;20186;-77
2022/07/15 13:24:57;;;;;;;3.87;2.60;;;;;;;;;;5014466;28;20194;-77
2022/07/15 13:27:24;;;;;;;3.93;2.30;;;;;;;;;;5013352;28;20230;-75
2022/07/15 13:29:50;;;;;;;5.03;2.70;;;;;;;;;;5011804;28;20193;-76
2022/07/15 13:32:16;;;;;;;4.47;2.30;;;;;;;;;;4992693;28;20745;-75
2022/07/15 13:34:43;;;;;;;2.73;2.23;;;;;;;;;;5006322;28;20188;-75
2022/07/15 13:37:09;;;;;;;3.80;2.30;;;;;;;;;;5003529;28;20233;-75
2022/07/15 13:39:35;;;;;;;3.80;2.30;;;;;;;;;;5006648;28;20179;-75
2022/07/15 13:42:01;;;;;;;4.97;2.37;;;;;;;;;;5005093;28;20207;-75
2022/07/15 13:44:28;;;;;;;2.90;2.10;;;;;;;;;;5008008;28;20190;-75
2022/07/15 13:46:54;;;;;;;3.07;2.23;;;;;;;;;;5007234;28;20179;-75
2022/07/15 13:51:22;;;;;;;3.20;2.10;;;;;;;;;;5013890;28;20652;-75
2022/07/15 13:52:06;;;;;;;3.83;2.13;;;;;;;;;;5015009;28;20311;-75
2022/07/15 13:54:32;;;;;;;2.40;2.20;;;;;;;;;;5007545;28;20626;-75
2022/07/15 13:56:59;;;;;;;2.50;2.07;;;;;;;;;;5007160;28;20560;-75
2022/07/15 13:59:25;;;;;;;2.83;2.20;;;;;;;;;;5009911;28;20192;-75
2022/07/15 14:01:51;;;;;;;2.30;2.10;;;;;;;;;;5004900;28;20200;-75
2022/07/15 14:04:17;;;;;;;6.23;2.20;;;;;;;;;;5014494;28;20192;-75
2022/07/15 14:06:44;;;;;;;3.33;2.20;;;;;;;;;;5006703;28;20182;-75
2022/07/15 14:09:10;;;;;;;3.03;2.40;;;;;;;;;;5012030;28;20253;-74
2022/07/15 14:11:37;;;;;;;7.13;2.57;;;;;;;;;;5010600;28;20762;-74
2022/07/15 14:14:04;;;;;;;3.80;2.30;;;;;;;;;;5007033;28;20200;-74
2022/07/15 14:16:30;;;;;;;2.83;2.50;;;;;;;;;;5006173;28;20635;-75
2022/07/15 14:18:56;;;;;;;3.33;2.37;;;;;;;;;;5014653;28;20184;-75
2022/07/15 14:21:23;;;;;;;3.27;2.37;;;;;;;;;;4991147;28;20207;-74
2022/07/15 14:23:49;;;;;;;2.53;2.23;;;;;;;;;;5010162;28;20220;-75
2022/07/15 14:26:16;;;;;;;3.13;2.50;;;;;;;;;;5008086;28;20640;-75
2022/07/15 14:28:43;;;;;;;3.33;2.33;;;;;;;;;;5011780;28;20216;-75
2022/07/15 14:31:12;;;;;;;2.90;2.47;;;;;;;;;;5006378;28;20305;-75
2022/07/15 14:33:40;;;;;;;2.43;2.17;;;;;;;;;;5009303;28;20227;-75
2022/07/15 14:36:06;;;;;;;2.20;2.00;;;;;;;;;;5010844;28;20217;-75
2022/07/15 14:38:33;;;;;;;3.67;2.23;;;;;;;;;;5005237;28;20188;-75
2022/07/15 14:40:59;;;;;;;2.90;2.40;;;;;;;;;;5007530;28;20729;-75
2022/07/15 14:43:25;;;;;;;2.77;2.20;;;;;;;;;;5006738;28;20186;-75
2022/07/15 14:45:52;;;;;;;4.40;2.40;;;;;;;;;;5006906;28;20181;-75
2022/07/15 14:48:18;;;;;;;3.03;2.20;;;;;;;;;;5005188;28;20194;-75
2022/07/15 14:50:44;;;;;;;2.97;1.93;;;;;;;;;;4990153;28;20222;-75
2022/07/15 14:53:10;;;;;;;2.87;2.20;;;;;;;;;;4991785;28;20190;-75
2022/07/15 14:55:36;;;;;;;3.90;2.30;;;;;;;;;;5005635;28;20213;-74
2022/07/15 14:58:03;;;;;;;4.60;2.47;;;;;;;;;;5004549;28;20179;-76
2022/07/15 15:00:30;;;;;;;4.00;2.27;;;;;;;;;;5006865;28;20715;-76
2022/07/15 15:02:56;;;;;;;2.60;2.30;;;;;;;;;;5005698;28;20739;-75